Clemmons, North Carolina
Current Conditions -  °F | °C
As of 9:54 AM on Friday 28 Nov 2014 (Local Time) from KINT Reporting Station
Clear Clear  
Wind Chill: 28°   Ceiling: Unl
Heat Index: 36°   Visibility: 10mi
Dew Point: 16°   Wind: 12mph
Humidity: 44%   Direction: 320°NW
Pressure: 30.37"   Gusts: NA
Location:  36.02°N, 80.38°W
Report Text: KINT 281454Z 32010KT 10SM CLR 02/M09 A3037 RMK AO2 SLP288 T00221089 51012
Loading
Personal Weather Stations






























Interactive Weather Map New forecast layout! Learn more

10-Day Weather Forecast

Advertisements
Track Severe Weather on mobile